createdAt,value
2022-12-07T00:00:03.984Z,1010.8
2022-12-07T00:01:13.180Z,1010.8
2022-12-07T00:02:22.281Z,1010.8
2022-12-07T00:03:31.441Z,1010.7
2022-12-07T00:04:40.621Z,1010.7
2022-12-07T00:05:49.820Z,1010.7
2022-12-07T00:06:59.035Z,1010.7
2022-12-07T00:08:08.135Z,1010.7
2022-12-07T00:09:17.393Z,1010.7
2022-12-07T00:10:26.484Z,1010.7
2022-12-07T00:11:35.672Z,1010.7
2022-12-07T00:12:44.844Z,1010.7
2022-12-07T00:13:53.995Z,1010.7
2022-12-07T00:15:02.199Z,1010.7
2022-12-07T00:16:11.367Z,1010.6
2022-12-07T00:17:20.560Z,1010.7
2022-12-07T00:18:29.710Z,1010.7
2022-12-07T00:19:38.883Z,1010.7
2022-12-07T00:20:48.053Z,1010.7
2022-12-07T00:21:56.279Z,1010.7
2022-12-07T00:23:04.442Z,1010.7
2022-12-07T00:24:12.637Z,1010.7
2022-12-07T00:25:20.827Z,1010.7
2022-12-07T00:26:30.069Z,1010.7
2022-12-07T00:27:39.190Z,1010.7
2022-12-07T00:28:48.403Z,1010.6
2022-12-07T00:29:57.511Z,1010.5
2022-12-07T00:31:06.691Z,1010.5
2022-12-07T00:32:15.918Z,1010.6
2022-12-07T00:33:25.030Z,1010.6
2022-12-07T00:34:34.218Z,1010.6
2022-12-07T00:35:43.406Z,1010.6
2022-12-07T00:38:01.719Z,1010.5
2022-12-07T00:39:11.018Z,1010.5
2022-12-07T00:40:19.167Z,1010.5
2022-12-07T00:41:28.247Z,1010.5
2022-12-07T00:43:46.607Z,1010.5
2022-12-07T00:44:54.861Z,1010.5
2022-12-07T00:46:02.992Z,1010.5
2022-12-07T00:47:12.303Z,1010.5
2022-12-07T00:49:30.511Z,1010.5
2022-12-07T00:50:39.673Z,1010.5
2022-12-07T00:52:58.075Z,1010.5
2022-12-07T00:54:07.192Z,1010.5
2022-12-07T00:55:16.387Z,1010.4
2022-12-07T00:56:25.572Z,1010.4
2022-12-07T00:57:34.788Z,1010.5
2022-12-07T00:58:43.898Z,1010.4
2022-12-07T00:59:52.133Z,1010.4
2022-12-07T01:01:00.283Z,1010.4
2022-12-07T01:02:09.481Z,1010.3
2022-12-07T01:03:18.629Z,1010.4
2022-12-07T01:04:27.830Z,1010.3
2022-12-07T01:05:36.967Z,1010.4
2022-12-07T01:06:46.137Z,1010.4
2022-12-07T01:07:55.308Z,1010.4
2022-12-07T01:09:04.484Z,1010.4
2022-12-07T01:10:13.648Z,1010.3
2022-12-07T01:11:22.831Z,1010.4
2022-12-07T01:12:31.026Z,1010.3
2022-12-07T01:13:40.247Z,1010.4
2022-12-07T01:14:48.392Z,1010.4
2022-12-07T01:15:57.559Z,1010.4
2022-12-07T01:17:06.727Z,1010.3
2022-12-07T01:18:15.897Z,1010.5
2022-12-07T01:19:25.092Z,1010.5
2022-12-07T01:20:34.248Z,1010.4
2022-12-07T01:21:43.472Z,1010.4
2022-12-07T01:22:52.588Z,1010.4
2022-12-07T01:24:01.761Z,1010.4
2022-12-07T01:25:09.962Z,1010.4
2022-12-07T01:26:18.141Z,1010.4
2022-12-07T01:27:27.323Z,1010.5
2022-12-07T01:28:36.540Z,1010.5
2022-12-07T01:29:45.669Z,1010.5
2022-12-07T01:30:55.011Z,1010.5
2022-12-07T01:32:04.003Z,1010.5
2022-12-07T01:33:13.197Z,1010.5
2022-12-07T01:35:31.574Z,1010.5
2022-12-07T01:36:40.781Z,1010.5
2022-12-07T01:37:49.875Z,1010.5
2022-12-07T01:38:59.051Z,1010.6
2022-12-07T01:40:08.255Z,1010.6
2022-12-07T01:41:16.413Z,1010.6
2022-12-07T01:42:25.582Z,1010.6
2022-12-07T01:43:34.753Z,1010.6
2022-12-07T01:44:44.028Z,1010.6
2022-12-07T01:45:53.150Z,1010.6
2022-12-07T01:47:02.351Z,1010.6
2022-12-07T01:48:11.600Z,1010.6
2022-12-07T01:49:20.620Z,1010.6
2022-12-07T01:50:29.794Z,1010.6
2022-12-07T01:51:37.984Z,1010.6
2022-12-07T01:52:47.152Z,1010.6
2022-12-07T01:53:56.327Z,1010.6
2022-12-07T01:55:05.509Z,1010.6
2022-12-07T01:56:14.686Z,1010.6
2022-12-07T01:57:23.878Z,1010.6
2022-12-07T01:58:33.023Z,1010.6
2022-12-07T02:00:51.373Z,1010.5
2022-12-07T02:02:00.586Z,1010.6
2022-12-07T02:03:09.729Z,1010.5
2022-12-07T02:04:18.888Z,1010.6
2022-12-07T02:05:27.092Z,1010.6
2022-12-07T02:06:35.265Z,1010.6
2022-12-07T02:07:44.446Z,1010.6
2022-12-07T02:08:53.629Z,1010.6
2022-12-07T02:10:01.853Z,1010.5
2022-12-07T02:11:10.991Z,1010.6
2022-12-07T02:12:19.217Z,1010.6
2022-12-07T02:13:28.336Z,1010.5
2022-12-07T02:14:37.516Z,1010.6
2022-12-07T02:15:46.696Z,1010.6
2022-12-07T02:16:55.858Z,1010.5
2022-12-07T02:18:05.033Z,1010.5
2022-12-07T02:19:14.198Z,1010.6
2022-12-07T02:20:23.386Z,1010.6
2022-12-07T02:21:32.593Z,1010.6
2022-12-07T02:22:41.729Z,1010.6
2022-12-07T02:23:50.902Z,1010.5
2022-12-07T02:25:00.293Z,1010.5
2022-12-07T02:26:09.258Z,1010.6
2022-12-07T02:27:17.430Z,1010.5
2022-12-07T02:28:26.627Z,1010.6
2022-12-07T02:29:35.834Z,1010.6
2022-12-07T02:30:44.942Z,1010.6
2022-12-07T02:31:54.117Z,1010.5
2022-12-07T02:33:03.359Z,1010.6
2022-12-07T02:34:11.535Z,1010.5
2022-12-07T02:35:20.654Z,1010.6
2022-12-07T02:36:28.919Z,1010.5
2022-12-07T02:37:38.034Z,1010.5
2022-12-07T02:38:46.214Z,1010.5
2022-12-07T02:39:55.409Z,1010.5
2022-12-07T02:41:04.566Z,1010.5
2022-12-07T02:42:13.738Z,1010.5
2022-12-07T02:43:22.916Z,1010.5
2022-12-07T02:44:32.080Z,1010.5
2022-12-07T02:45:41.289Z,1010.5
2022-12-07T02:46:50.419Z,1010.5
2022-12-07T02:47:59.607Z,1010.5
2022-12-07T02:49:08.778Z,1010.5
2022-12-07T02:50:18.041Z,1010.5
2022-12-07T02:51:27.209Z,1010.5
2022-12-07T02:52:36.300Z,1010.5
2022-12-07T02:53:44.478Z,1010.5
2022-12-07T02:54:53.699Z,1010.5
2022-12-07T02:56:02.817Z,1010.5
2022-12-07T02:57:12.001Z,1010.5
2022-12-07T02:58:21.270Z,1010.4
2022-12-07T02:59:30.351Z,1010.4
2022-12-07T03:00:38.662Z,1010.4
2022-12-07T03:01:46.737Z,1010.5
2022-12-07T03:02:55.905Z,1010.5
2022-12-07T03:04:05.121Z,1010.5
2022-12-07T03:05:14.361Z,1010.5
2022-12-07T03:06:23.414Z,1010.5
2022-12-07T03:07:32.604Z,1010.4
2022-12-07T03:08:41.765Z,1010.5
2022-12-07T03:09:50.950Z,1010.5
2022-12-07T03:11:00.168Z,1010.4
2022-12-07T03:12:09.289Z,1010.4
2022-12-07T03:13:18.468Z,1010.4
2022-12-07T03:14:26.665Z,1010.4
2022-12-07T03:15:34.976Z,1010.4
2022-12-07T03:16:44.021Z,1010.4
2022-12-07T03:17:53.438Z,1010.4
2022-12-07T03:19:02.367Z,1010.5
2022-12-07T03:20:11.532Z,1010.5
2022-12-07T03:21:20.825Z,1010.4
2022-12-07T03:22:29.913Z,1010.4
2022-12-07T03:23:39.117Z,1010.4
2022-12-07T03:24:48.232Z,1010.4
2022-12-07T03:25:57.410Z,1010.3
2022-12-07T03:27:06.570Z,1010.4
2022-12-07T03:28:15.742Z,1010.4
2022-12-07T03:29:24.920Z,1010.3
2022-12-07T03:30:33.115Z,1010.3
2022-12-07T03:31:42.277Z,1010.4
2022-12-07T03:32:51.455Z,1010.3
2022-12-07T03:34:00.618Z,1010.3
2022-12-07T03:35:09.929Z,1010.4
2022-12-07T03:36:18.968Z,1010.3
2022-12-07T03:37:28.142Z,1010.4
2022-12-07T03:38:36.348Z,1010.3
2022-12-07T03:39:44.552Z,1010.4
2022-12-07T03:40:53.701Z,1010.3
2022-12-07T03:42:02.878Z,1010.3
2022-12-07T03:43:11.150Z,1010.3
2022-12-07T03:44:19.271Z,1010.3
2022-12-07T03:45:28.434Z,1010.4
2022-12-07T03:46:37.610Z,1010.3
2022-12-07T03:47:46.769Z,1010.3
2022-12-07T03:48:55.949Z,1010.4
2022-12-07T03:50:05.232Z,1010.3
2022-12-07T03:51:14.299Z,1010.4
2022-12-07T03:52:23.460Z,1010.3
2022-12-07T03:53:32.641Z,1010.3
2022-12-07T03:54:41.824Z,1010.2
2022-12-07T03:55:50.990Z,1010.2
2022-12-07T03:57:00.198Z,1010.2
2022-12-07T03:58:09.347Z,1010.3
2022-12-07T03:59:17.528Z,1010.3
2022-12-07T04:01:35.872Z,1010.3
2022-12-07T04:02:45.058Z,1010.2
2022-12-07T04:03:54.231Z,1010.2
2022-12-07T04:05:03.384Z,1010.2
2022-12-07T04:06:12.559Z,1010.2
2022-12-07T04:07:21.734Z,1010.3
2022-12-07T04:08:29.930Z,1010.2
2022-12-07T04:09:38.125Z,1010.2
2022-12-07T04:10:47.353Z,1010.2
2022-12-07T04:11:55.487Z,1010.2
2022-12-07T04:13:03.723Z,1010.2
2022-12-07T04:14:12.845Z,1010.3
2022-12-07T04:15:22.017Z,1010.2
2022-12-07T04:16:31.197Z,1010.3
2022-12-07T04:17:40.398Z,1010.3
2022-12-07T04:18:49.540Z,1010.2
2022-12-07T04:19:58.707Z,1010.2
2022-12-07T04:21:07.898Z,1010.3
2022-12-07T04:22:17.078Z,1010.3
2022-12-07T04:23:26.232Z,1010.3
2022-12-07T04:24:35.410Z,1010.3
2022-12-07T04:25:44.579Z,1010.3
2022-12-07T04:26:53.756Z,1010.2
2022-12-07T04:28:01.958Z,1010.3
2022-12-07T04:29:11.193Z,1010.2
2022-12-07T04:30:20.276Z,1010.3
2022-12-07T04:31:29.457Z,1010.3
2022-12-07T04:32:38.696Z,1010.3
2022-12-07T04:33:47.802Z,1010.3
2022-12-07T04:34:57.052Z,1010.2
2022-12-07T04:36:05.225Z,1010.3
2022-12-07T04:37:13.408Z,1010.2
2022-12-07T04:38:22.551Z,1010.2
2022-12-07T04:39:31.704Z,1010.2
2022-12-07T04:40:39.899Z,1010.3
2022-12-07T04:41:48.088Z,1010.2
2022-12-07T04:42:57.260Z,1010.2
2022-12-07T04:44:06.432Z,1010.2
2022-12-07T04:45:15.611Z,1010.3
2022-12-07T04:46:24.782Z,1010.2
2022-12-07T04:47:33.947Z,1010.3
2022-12-07T04:48:43.126Z,1010.3
2022-12-07T04:49:52.289Z,1010.3
2022-12-07T04:51:01.469Z,1010.3
2022-12-07T04:52:10.651Z,1010.3
2022-12-07T04:53:19.891Z,1010.3
2022-12-07T04:54:29.008Z,1010.3
2022-12-07T04:55:38.276Z,1010.3
2022-12-07T04:56:47.386Z,1010.3
2022-12-07T04:57:56.513Z,1010.4
2022-12-07T04:59:04.710Z,1010.3
2022-12-07T05:00:13.886Z,1010.3
2022-12-07T05:01:23.039Z,1010.3
2022-12-07T05:02:32.221Z,1010.3
2022-12-07T05:03:41.395Z,1010.3
2022-12-07T05:04:49.596Z,1010.3
2022-12-07T05:05:57.771Z,1010.2
2022-12-07T05:07:05.973Z,1010.2
2022-12-07T05:08:14.196Z,1010.3
2022-12-07T05:09:23.334Z,1010.2
2022-12-07T05:10:32.509Z,1010.3
2022-12-07T05:11:41.690Z,1010.3
2022-12-07T05:12:50.851Z,1010.3
2022-12-07T05:14:00.028Z,1010.3
2022-12-07T05:15:09.401Z,1010.3
2022-12-07T05:16:18.380Z,1010.3
2022-12-07T05:17:27.544Z,1010.3
2022-12-07T05:18:36.714Z,1010.3
2022-12-07T05:19:45.895Z,1010.3
2022-12-07T05:20:55.054Z,1010.3
2022-12-07T05:22:04.312Z,1010.3
2022-12-07T05:23:12.423Z,1010.3
2022-12-07T05:24:21.592Z,1010.3
2022-12-07T05:25:30.774Z,1010.3
2022-12-07T05:26:39.939Z,1010.2
2022-12-07T05:27:49.113Z,1010.3
2022-12-07T05:28:58.288Z,1010.3
2022-12-07T05:30:07.458Z,1010.3
2022-12-07T05:31:16.668Z,1010.3
2022-12-07T05:32:25.811Z,1010.2
2022-12-07T05:33:34.984Z,1010.2
2022-12-07T05:34:44.211Z,1010.2
2022-12-07T05:35:53.322Z,1010.2
2022-12-07T05:37:02.537Z,1010.2
2022-12-07T05:38:10.761Z,1010.2
2022-12-07T05:39:19.860Z,1010.2
2022-12-07T05:40:29.131Z,1010.2
2022-12-07T05:41:38.209Z,1010.2
2022-12-07T05:42:46.404Z,1010.2
2022-12-07T05:43:55.571Z,1010.1
2022-12-07T05:45:04.745Z,1010.2
2022-12-07T05:46:13.937Z,1010.1
2022-12-07T05:47:23.171Z,1010.1
2022-12-07T05:48:32.308Z,1010
2022-12-07T05:49:41.513Z,1010.1
2022-12-07T05:50:50.610Z,1010.1
2022-12-07T05:51:59.856Z,1010
2022-12-07T05:53:08.953Z,1010
2022-12-07T05:54:18.135Z,1010.1
2022-12-07T05:55:27.307Z,1010
2022-12-07T05:56:36.492Z,1010.1
2022-12-07T05:57:44.664Z,1010
2022-12-07T05:58:53.832Z,1010
2022-12-07T06:00:03.005Z,1010.1
2022-12-07T06:01:12.180Z,1010.1
2022-12-07T06:02:21.405Z,1010.1
2022-12-07T06:03:30.534Z,1010.1
2022-12-07T06:04:39.706Z,1010.2
2022-12-07T06:05:49.011Z,1010.1
2022-12-07T06:06:58.073Z,1010.1
2022-12-07T06:08:07.335Z,1010.1
2022-12-07T06:09:16.482Z,1010.1
2022-12-07T06:10:25.571Z,1010.1
2022-12-07T06:11:34.732Z,1010.1
2022-12-07T06:12:43.056Z,1010.1
2022-12-07T06:13:52.138Z,1010.1
2022-12-07T06:15:01.267Z,1010.1
2022-12-07T06:16:10.451Z,1010.1
2022-12-07T06:17:19.775Z,1010.1
2022-12-07T06:19:37.961Z,1010.1
2022-12-07T06:20:47.136Z,1010.1
2022-12-07T06:21:56.344Z,1010.1
2022-12-07T06:23:05.483Z,1010.1
2022-12-07T06:24:14.649Z,1010.1
2022-12-07T06:25:23.914Z,1010.1
2022-12-07T06:26:33.001Z,1010.1
2022-12-07T06:27:41.216Z,1010.2
2022-12-07T06:28:50.357Z,1010.1
2022-12-07T06:29:59.586Z,1010.1
2022-12-07T06:31:08.752Z,1010.1
2022-12-07T06:32:17.884Z,1010.1
2022-12-07T06:33:27.123Z,1010.2
2022-12-07T06:34:36.228Z,1010.1
2022-12-07T06:35:45.411Z,1010.1
2022-12-07T06:36:54.621Z,1010.2
2022-12-07T06:38:03.758Z,1010.1
2022-12-07T06:39:12.921Z,1010.1
2022-12-07T06:40:22.241Z,1010.2
2022-12-07T06:41:31.345Z,1010.2
2022-12-07T06:42:39.448Z,1010.2
2022-12-07T06:43:48.614Z,1010.2
2022-12-07T06:44:57.789Z,1010.1
2022-12-07T06:46:06.963Z,1010.2
2022-12-07T06:47:16.152Z,1010.2
2022-12-07T06:48:25.310Z,1010.2
2022-12-07T06:49:34.548Z,1010.3
2022-12-07T06:50:43.664Z,1010.2
2022-12-07T06:51:52.831Z,1010.2
2022-12-07T06:53:02.054Z,1010.3
2022-12-07T06:54:11.222Z,1010.3
2022-12-07T06:55:20.345Z,1010.3
2022-12-07T06:56:29.530Z,1010.3
2022-12-07T06:57:37.730Z,1010.3
2022-12-07T06:58:46.891Z,1010.3
2022-12-07T06:59:56.065Z,1010.3
2022-12-07T07:01:05.235Z,1010.2
2022-12-07T07:02:14.543Z,1010.3
2022-12-07T07:03:23.574Z,1010.3
2022-12-07T07:04:32.841Z,1010.3
2022-12-07T07:05:42.094Z,1010.4
2022-12-07T07:07:59.305Z,1010.3
2022-12-07T07:09:07.560Z,1010.4
2022-12-07T07:10:15.691Z,1010.3
2022-12-07T07:11:24.932Z,1010.4
2022-12-07T07:12:34.197Z,1010.4
2022-12-07T07:13:43.270Z,1010.4
2022-12-07T07:14:52.379Z,1010.4
2022-12-07T07:16:00.563Z,1010.4
2022-12-07T07:17:08.786Z,1010.4
2022-12-07T07:18:18.024Z,1010.4
2022-12-07T07:19:27.103Z,1010.4
2022-12-07T07:20:36.364Z,1010.3
2022-12-07T07:21:45.552Z,1010.3
2022-12-07T07:22:54.623Z,1010.4
2022-12-07T07:24:03.794Z,1010.4
2022-12-07T07:25:13.114Z,1010.3
2022-12-07T07:26:22.173Z,1010.4
2022-12-07T07:28:40.550Z,1010.4
2022-12-07T07:29:49.644Z,1010.3
2022-12-07T07:30:58.854Z,1010.4
2022-12-07T07:32:07.153Z,1010.4
2022-12-07T07:33:16.210Z,1010.4
2022-12-07T07:34:25.412Z,1010.4
2022-12-07T07:35:34.609Z,1010.4
2022-12-07T07:36:43.732Z,1010.4
2022-12-07T07:37:52.936Z,1010.5
2022-12-07T07:39:02.097Z,1010.5
2022-12-07T07:40:11.296Z,1010.5
2022-12-07T07:41:19.502Z,1010.5
2022-12-07T07:42:27.693Z,1010.4
2022-12-07T07:43:36.786Z,1010.5
2022-12-07T07:44:45.963Z,1010.5
2022-12-07T07:45:55.137Z,1010.5
2022-12-07T07:47:03.355Z,1010.5
2022-12-07T07:48:11.518Z,1010.5
2022-12-07T07:49:20.687Z,1010.5
2022-12-07T07:50:29.900Z,1010.5
2022-12-07T07:51:39.032Z,1010.5
2022-12-07T07:52:48.244Z,1010.5
2022-12-07T07:53:57.432Z,1010.5
2022-12-07T07:55:06.555Z,1010.5
2022-12-07T07:56:15.743Z,1010.6
2022-12-07T07:57:24.933Z,1010.6
2022-12-07T07:59:43.248Z,1010.6
2022-12-07T08:00:52.419Z,1010.5
2022-12-07T08:02:01.634Z,1010.6
2022-12-07T08:03:11.090Z,1010.6
2022-12-07T08:04:18.951Z,1010.5
2022-12-07T08:05:28.145Z,1010.6
2022-12-07T08:06:37.370Z,1010.6
2022-12-07T08:07:46.481Z,1010.6
2022-12-07T08:08:55.731Z,1010.6
2022-12-07T08:10:04.854Z,1010.5
2022-12-07T08:11:14.056Z,1010.5
2022-12-07T08:12:23.182Z,1010.5
2022-12-07T08:13:32.400Z,1010.5
2022-12-07T08:14:41.641Z,1010.5
2022-12-07T08:16:59.887Z,1010.5
2022-12-07T08:18:08.062Z,1010.5
2022-12-07T08:19:16.438Z,1010.5
2022-12-07T08:20:25.527Z,1010.5
2022-12-07T08:21:34.699Z,1010.4
2022-12-07T08:22:43.900Z,1010.5
2022-12-07T08:23:53.089Z,1010.4
2022-12-07T08:25:02.154Z,1010.5
2022-12-07T08:26:11.444Z,1010.4
2022-12-07T08:27:19.673Z,1010.5
2022-12-07T08:28:27.800Z,1010.5
2022-12-07T08:29:36.994Z,1010.5
2022-12-07T08:30:46.154Z,1010.5
2022-12-07T08:31:55.336Z,1010.4
2022-12-07T08:33:04.500Z,1010.5
2022-12-07T08:35:22.820Z,1010.5
2022-12-07T08:36:32.003Z,1010.5
2022-12-07T08:37:41.112Z,1010.5
2022-12-07T08:38:50.300Z,1010.5
2022-12-07T08:39:59.394Z,1010.5
2022-12-07T08:41:08.701Z,1010.5
2022-12-07T08:42:17.824Z,1010.5
2022-12-07T08:43:26.039Z,1010.4
2022-12-07T08:44:35.235Z,1010.4
2022-12-07T08:45:44.371Z,1010.4
2022-12-07T08:46:53.559Z,1010.4
2022-12-07T08:48:02.796Z,1010.4
2022-12-07T08:49:11.860Z,1010.4
2022-12-07T08:50:21.059Z,1010.4
2022-12-07T08:51:30.144Z,1010.3
2022-12-07T08:52:39.383Z,1010.4
2022-12-07T08:53:48.468Z,1010.4
2022-12-07T08:54:57.673Z,1010.3
2022-12-07T08:56:06.811Z,1010.4
2022-12-07T08:57:15.990Z,1010.4
2022-12-07T08:58:24.177Z,1010.4
2022-12-07T08:59:33.365Z,1010.4
2022-12-07T09:00:41.674Z,1010.4
2022-12-07T09:01:49.753Z,1010.3
2022-12-07T09:02:59.029Z,1010.4
2022-12-07T09:04:08.130Z,1010.4
2022-12-07T09:05:16.512Z,1010.3
2022-12-07T09:06:24.475Z,1010.3
2022-12-07T09:07:33.709Z,1010.4
2022-12-07T09:08:42.814Z,1010.3
2022-12-07T09:09:52.065Z,1010.4
2022-12-07T09:11:01.317Z,1010.4
2022-12-07T09:12:10.421Z,1010.3
2022-12-07T09:14:28.833Z,1010.3
2022-12-07T09:15:37.949Z,1010.4
2022-12-07T09:16:47.012Z,1010.3
2022-12-07T09:17:56.245Z,1010.3
2022-12-07T09:19:05.353Z,1010.3
2022-12-07T09:21:23.806Z,1010.3
2022-12-07T09:22:32.025Z,1010.4
2022-12-07T09:23:40.096Z,1010.3
2022-12-07T09:24:49.458Z,1010.4
2022-12-07T09:25:58.439Z,1010.3
2022-12-07T09:27:07.625Z,1010.4
2022-12-07T09:28:16.783Z,1010.4
2022-12-07T09:29:25.989Z,1010.3
2022-12-07T09:30:35.116Z,1010.3
2022-12-07T09:31:44.393Z,1010.3
2022-12-07T09:32:53.533Z,1010.4
2022-12-07T09:34:01.658Z,1010.3
2022-12-07T09:35:09.982Z,1010.3
2022-12-07T09:36:18.154Z,1010.3
2022-12-07T09:37:27.357Z,1010.3
2022-12-07T09:38:36.440Z,1010.4
2022-12-07T09:39:45.644Z,1010.4
2022-12-07T09:40:54.730Z,1010.5
2022-12-07T09:42:03.967Z,1010.5
2022-12-07T09:43:13.158Z,1010.5
2022-12-07T09:44:22.408Z,1010.4
2022-12-07T09:45:31.522Z,1010.5
2022-12-07T09:46:40.692Z,1010.4
2022-12-07T09:47:49.863Z,1010.4
2022-12-07T09:48:58.974Z,1010.4
2022-12-07T09:50:08.164Z,1010.4
2022-12-07T09:51:16.308Z,1010.4
2022-12-07T09:52:25.470Z,1010.4
2022-12-07T09:53:34.726Z,1010.4
2022-12-07T09:54:43.901Z,1010.3
2022-12-07T09:55:53.122Z,1010.3
2022-12-07T09:57:02.178Z,1010.3
2022-12-07T09:58:11.467Z,1010.3
2022-12-07T09:59:20.570Z,1010.3
2022-12-07T10:00:29.769Z,1010.2
2022-12-07T10:01:39.023Z,1010.2
2022-12-07T10:02:48.104Z,1010.2
2022-12-07T10:03:57.380Z,1010.1
2022-12-07T10:05:06.516Z,1010.2
2022-12-07T10:06:14.823Z,1010.1
2022-12-07T10:07:23.871Z,1010
2022-12-07T10:08:32.903Z,1010.1
2022-12-07T10:09:42.158Z,1010.1
2022-12-07T10:10:51.334Z,1010.1
2022-12-07T10:12:00.420Z,1010
2022-12-07T10:13:09.685Z,1010.1
2022-12-07T10:14:18.766Z,1010
2022-12-07T10:15:27.974Z,1010
2022-12-07T10:16:37.152Z,1010
2022-12-07T10:17:46.290Z,1010
2022-12-07T10:18:55.766Z,1010.1
2022-12-07T10:20:04.760Z,1010.1
2022-12-07T10:21:12.871Z,1010
2022-12-07T10:22:22.069Z,1010.1
2022-12-07T10:23:31.171Z,1010.1
2022-12-07T10:24:40.337Z,1010.1
2022-12-07T10:25:49.590Z,1010.1
2022-12-07T10:26:58.781Z,1010.1
2022-12-07T10:28:07.859Z,1010
2022-12-07T10:29:17.049Z,1010.1
2022-12-07T10:30:26.195Z,1010.1
2022-12-07T10:31:35.513Z,1010.1
2022-12-07T10:32:44.542Z,1010.1
2022-12-07T10:33:53.721Z,1010.1
2022-12-07T10:35:02.950Z,1010
2022-12-07T10:36:11.140Z,1010.1
2022-12-07T10:37:20.360Z,1010
2022-12-07T10:38:29.424Z,1010
2022-12-07T10:39:38.621Z,1010
2022-12-07T10:40:47.798Z,1010
2022-12-07T10:41:56.966Z,1009.9
2022-12-07T10:43:05.132Z,1009.9
2022-12-07T10:44:13.488Z,1010
2022-12-07T10:45:21.530Z,1010
2022-12-07T10:46:29.774Z,1010
2022-12-07T10:47:38.928Z,1010.1
2022-12-07T10:48:48.053Z,1010
2022-12-07T10:49:57.283Z,1010
2022-12-07T10:51:06.524Z,1010
2022-12-07T10:52:15.568Z,1010
2022-12-07T10:53:24.771Z,1010
2022-12-07T10:54:33.996Z,1009.9
2022-12-07T10:55:43.194Z,1009.9
2022-12-07T10:56:52.408Z,1009.9
2022-12-07T10:58:01.468Z,1009.9
2022-12-07T10:59:10.605Z,1009.9
2022-12-07T11:00:19.774Z,1009.9
2022-12-07T11:01:27.978Z,1010
2022-12-07T11:02:37.305Z,1009.9
2022-12-07T11:03:46.317Z,1009.9
2022-12-07T11:04:55.501Z,1009.9
2022-12-07T11:06:04.775Z,1009.9
2022-12-07T11:07:13.905Z,1009.9
2022-12-07T11:08:23.119Z,1009.9
2022-12-07T11:09:31.306Z,1010
2022-12-07T11:10:39.491Z,1009.9
2022-12-07T11:11:48.550Z,1009.9
2022-12-07T11:12:57.766Z,1009.8
2022-12-07T11:14:06.907Z,1009.8
2022-12-07T11:15:16.289Z,1009.8
2022-12-07T11:16:25.383Z,1009.7
2022-12-07T11:17:34.416Z,1009.7
2022-12-07T11:18:42.784Z,1009.6
2022-12-07T11:19:50.928Z,1009.7
2022-12-07T11:21:00.103Z,1009.6
2022-12-07T11:22:09.325Z,1009.6
2022-12-07T11:23:18.465Z,1009.6
2022-12-07T11:24:27.503Z,1009.6
2022-12-07T11:25:36.859Z,1009.6
2022-12-07T11:26:45.924Z,1009.6
2022-12-07T11:27:55.180Z,1009.5
2022-12-07T11:29:04.341Z,1009.6
2022-12-07T11:30:13.497Z,1009.5
2022-12-07T11:31:22.517Z,1009.5
2022-12-07T11:32:31.718Z,1009.5
2022-12-07T11:33:41.060Z,1009.6
2022-12-07T11:34:49.247Z,1009.5
2022-12-07T11:35:58.400Z,1009.5
2022-12-07T11:37:07.608Z,1009.5
2022-12-07T11:38:16.794Z,1009.5
2022-12-07T11:39:25.977Z,1009.5
2022-12-07T11:40:35.101Z,1009.5
2022-12-07T11:41:44.233Z,1009.4
2022-12-07T11:42:52.502Z,1009.4
2022-12-07T11:44:00.659Z,1009.5
2022-12-07T11:45:09.822Z,1009.4
2022-12-07T11:46:18.907Z,1009.4
2022-12-07T11:47:27.141Z,1009.3
2022-12-07T11:48:35.370Z,1009.4
2022-12-07T11:49:44.562Z,1009.4
2022-12-07T11:50:53.722Z,1009.4
2022-12-07T11:52:02.727Z,1009.3
2022-12-07T11:53:12.070Z,1009.3
2022-12-07T11:54:21.286Z,1009.3
2022-12-07T11:55:30.400Z,1009.3
2022-12-07T11:56:39.563Z,1009.2
2022-12-07T11:57:48.773Z,1009.2
2022-12-07T11:58:57.890Z,1009.2
2022-12-07T12:00:07.080Z,1009.2
2022-12-07T12:01:16.247Z,1009.2
2022-12-07T12:02:25.357Z,1009.2
2022-12-07T12:03:33.597Z,1009.1
2022-12-07T12:04:42.813Z,1009.2
2022-12-07T12:05:51.955Z,1009.2
2022-12-07T12:07:01.046Z,1009.2
2022-12-07T12:08:10.157Z,1009.2
2022-12-07T12:09:19.323Z,1009.2
2022-12-07T12:10:28.586Z,1009.2
2022-12-07T12:11:36.688Z,1009.2
2022-12-07T12:12:44.879Z,1009.2
2022-12-07T12:13:54.047Z,1009.2
2022-12-07T12:15:03.295Z,1009.2
2022-12-07T12:16:12.424Z,1009.3
2022-12-07T12:17:21.562Z,1009.2
2022-12-07T12:18:30.803Z,1009.1
2022-12-07T12:19:39.982Z,1009.2
2022-12-07T12:20:49.131Z,1009.1
2022-12-07T12:21:58.254Z,1009.1
2022-12-07T12:23:07.444Z,1009.1
2022-12-07T12:24:16.745Z,1009.1
2022-12-07T12:25:25.891Z,1009.1
2022-12-07T12:26:35.069Z,1009.1
2022-12-07T12:27:43.262Z,1009
2022-12-07T12:28:51.347Z,1009
2022-12-07T12:30:00.535Z,1009
2022-12-07T12:31:09.668Z,1009
2022-12-07T12:32:18.876Z,1009.1
2022-12-07T12:33:28.012Z,1009
2022-12-07T12:34:37.204Z,1009
2022-12-07T12:35:46.355Z,1008.9
2022-12-07T12:36:55.580Z,1008.9
2022-12-07T12:38:04.776Z,1008.9
2022-12-07T12:39:13.878Z,1008.9
2022-12-07T12:40:23.055Z,1008.9
2022-12-07T12:41:32.233Z,1008.9
2022-12-07T12:42:41.405Z,1008.9
2022-12-07T12:43:49.579Z,1008.9
2022-12-07T12:44:58.871Z,1008.9
2022-12-07T12:46:07.923Z,1008.9
2022-12-07T12:47:17.096Z,1009
2022-12-07T12:48:26.306Z,1008.9
2022-12-07T12:49:35.480Z,1008.9
2022-12-07T12:50:44.621Z,1008.9
2022-12-07T12:51:52.811Z,1008.9
2022-12-07T12:53:01.028Z,1009
2022-12-07T12:54:09.189Z,1009
2022-12-07T12:55:17.412Z,1009
2022-12-07T12:56:26.563Z,1009
2022-12-07T12:57:35.733Z,1008.9
2022-12-07T12:58:44.901Z,1008.9
2022-12-07T12:59:54.067Z,1009
2022-12-07T13:01:03.316Z,1008.9
2022-12-07T13:02:12.419Z,1009
2022-12-07T13:03:21.590Z,1008.9
2022-12-07T13:04:30.760Z,1009
2022-12-07T13:05:39.942Z,1009
2022-12-07T13:09:07.455Z,1008.8
2022-12-07T13:10:15.692Z,1008.8
2022-12-07T13:12:33.021Z,1008.8
2022-12-07T13:13:42.329Z,1008.7
2022-12-07T13:14:51.348Z,1008.7
2022-12-07T13:16:00.538Z,1008.7
2022-12-07T13:17:09.812Z,1008.8
2022-12-07T13:18:18.871Z,1008.8
2022-12-07T13:19:28.048Z,1008.7
2022-12-07T13:20:37.224Z,1008.6
2022-12-07T13:21:46.405Z,1008.7
2022-12-07T13:22:55.633Z,1008.7
2022-12-07T13:24:03.984Z,1008.8
2022-12-07T13:25:11.957Z,1008.7
2022-12-07T13:26:21.142Z,1008.7
2022-12-07T13:27:30.290Z,1008.6
2022-12-07T13:28:39.474Z,1008.6
2022-12-07T13:29:48.634Z,1008.5
2022-12-07T13:30:57.813Z,1008.6
2022-12-07T13:32:06.999Z,1008.5
2022-12-07T13:33:16.236Z,1008.5
2022-12-07T13:34:25.330Z,1008.5
2022-12-07T13:36:43.678Z,1008.5
2022-12-07T13:37:52.845Z,1008.5
2022-12-07T13:39:02.146Z,1008.5
2022-12-07T13:40:10.290Z,1008.6
2022-12-07T13:41:19.513Z,1008.5
2022-12-07T13:42:28.569Z,1008.5
2022-12-07T13:43:37.729Z,1008.5
2022-12-07T13:44:47.024Z,1008.6
2022-12-07T13:45:56.096Z,1008.6
2022-12-07T13:47:05.237Z,1008.5
2022-12-07T13:48:14.504Z,1008.6
2022-12-07T13:49:22.630Z,1008.6
2022-12-07T13:50:30.901Z,1008.6
2022-12-07T13:51:39.957Z,1008.5
2022-12-07T13:52:49.151Z,1008.5
2022-12-07T13:53:57.364Z,1008.5
2022-12-07T13:55:05.567Z,1008.5
2022-12-07T13:56:14.805Z,1008.6
2022-12-07T13:57:23.875Z,1008.5
2022-12-07T13:58:33.062Z,1008.5
2022-12-07T13:59:42.212Z,1008.5
2022-12-07T14:00:51.459Z,1008.5
2022-12-07T14:02:00.575Z,1008.5
2022-12-07T14:03:09.743Z,1008.5
2022-12-07T14:04:18.901Z,1008.5
2022-12-07T14:05:28.086Z,1008.5
2022-12-07T14:06:37.370Z,1008.5
2022-12-07T14:07:46.427Z,1008.4
2022-12-07T14:08:55.682Z,1008.5
2022-12-07T14:10:03.791Z,1008.5
2022-12-07T14:11:12.978Z,1008.4
2022-12-07T14:12:22.140Z,1008.4
2022-12-07T14:13:31.355Z,1008.5
2022-12-07T14:14:40.478Z,1008.4
2022-12-07T14:15:49.759Z,1008.4
2022-12-07T14:16:58.822Z,1008.4
2022-12-07T14:18:07.021Z,1008.4
2022-12-07T14:19:16.324Z,1008.4
2022-12-07T14:20:24.400Z,1008.4
2022-12-07T14:21:33.551Z,1008.4
2022-12-07T14:22:42.777Z,1008.4
2022-12-07T14:23:51.897Z,1008.4
2022-12-07T14:25:01.074Z,1008.4
2022-12-07T14:27:19.431Z,1008.4
2022-12-07T14:28:28.632Z,1008.5
2022-12-07T14:29:37.812Z,1008.5
2022-12-07T14:30:46.966Z,1008.4
2022-12-07T14:31:56.159Z,1008.4
2022-12-07T14:33:05.312Z,1008.4
2022-12-07T14:34:14.559Z,1008.4
2022-12-07T14:35:22.629Z,1008.4
2022-12-07T14:36:31.881Z,1008.4
2022-12-07T14:37:40.968Z,1008.3
2022-12-07T14:38:50.174Z,1008.4
2022-12-07T14:39:59.489Z,1008.4
2022-12-07T14:41:07.525Z,1008.4
2022-12-07T14:42:16.690Z,1008.4
2022-12-07T14:43:24.969Z,1008.4
2022-12-07T14:44:34.058Z,1008.3
2022-12-07T14:45:43.222Z,1008.4
2022-12-07T14:46:52.406Z,1008.4